sensor_id;sensor_type;location;lat;lon;timestamp;pressure;altitude;pressure_sealevel;temperature;humidity
22025;BME280;11176;51.448;6.650;2023-04-08T00:00:16;43008.97;;;-141.29;100.00
22025;BME280;11176;51.448;6.650;2023-04-08T00:02:43;43016.97;;;-141.29;100.00
22025;BME280;11176;51.448;6.650;2023-04-08T00:05:09;42977.03;;;-141.29;100.00
22025;BME280;11176;51.448;6.650;2023-04-08T00:07:37;43001.00;;;-141.29;100.00
22025;BME280;11176;51.448;6.650;2023-04-08T00:10:04;43001.00;;;-141.29;100.00
22025;BME280;11176;51.448;6.650;2023-04-08T00:12:32;42981.03;;;-141.29;100.00
22025;BME280;11176;51.448;6.650;2023-04-08T00:14:58;43022.97;;;-141.29;100.00
22025;BME280;11176;51.448;6.650;2023-04-08T00:17:24;42965.06;;;-141.29;100.00
22025;BME280;11176;51.448;6.650;2023-04-08T00:19:52;42991.00;;;-141.29;100.00
22025;BME280;11176;51.448;6.650;2023-04-08T00:22:18;43001.00;;;-141.29;100.00
22025;BME280;11176;51.448;6.650;2023-04-08T00:24:45;43006.97;;;-141.29;100.00
22025;BME280;11176;51.448;6.650;2023-04-08T00:27:11;42985.03;;;-141.29;100.00
22025;BME280;11176;51.448;6.650;2023-04-08T00:29:38;42997.00;;;-141.29;100.00
22025;BME280;11176;51.448;6.650;2023-04-08T00:32:04;43005.00;;;-141.29;100.00
22025;BME280;11176;51.448;6.650;2023-04-08T00:34:31;42997.00;;;-141.29;100.00
22025;BME280;11176;51.448;6.650;2023-04-08T00:36:58;42997.00;;;-141.29;100.00
22025;BME280;11176;51.448;6.650;2023-04-08T00:39:24;43008.97;;;-141.29;100.00
22025;BME280;11176;51.448;6.650;2023-04-08T00:41:51;42987.00;;;-141.29;100.00
22025;BME280;11176;51.448;6.650;2023-04-08T00:44:17;42995.00;;;-141.29;100.00
22025;BME280;11176;51.448;6.650;2023-04-08T00:46:44;42985.03;;;-141.29;100.00
22025;BME280;11176;51.448;6.650;2023-04-08T00:49:11;42985.03;;;-141.29;100.00
22025;BME280;11176;51.448;6.650;2023-04-08T00:51:37;43012.97;;;-141.29;100.00
22025;BME280;11176;51.448;6.650;2023-04-08T00:54:04;43024.97;;;-141.29;100.00
22025;BME280;11176;51.448;6.650;2023-04-08T00:56:31;43016.97;;;-141.29;100.00
22025;BME280;11176;51.448;6.650;2023-04-08T00:58:59;43005.00;;;-141.29;100.00
22025;BME280;11176;51.448;6.650;2023-04-08T01:01:41;43016.97;;;-141.29;100.00
22025;BME280;11176;51.448;6.650;2023-04-08T01:04:30;43014.97;;;-141.29;100.00
22025;BME280;11176;51.448;6.650;2023-04-08T01:07:02;43001.00;;;-141.29;100.00
22025;BME280;11176;51.448;6.650;2023-04-08T01:09:37;42999.00;;;-141.29;100.00
22025;BME280;11176;51.448;6.650;2023-04-08T01:12:07;42997.00;;;-141.29;100.00
22025;BME280;11176;51.448;6.650;2023-04-08T01:14:38;43016.97;;;-141.29;100.00
22025;BME280;11176;51.448;6.650;2023-04-08T01:17:06;43044.94;;;-141.29;100.00
22025;BME280;11176;51.448;6.650;2023-04-08T01:19:38;43003.00;;;-141.29;100.00
22025;BME280;11176;51.448;6.650;2023-04-08T01:22:26;43034.94;;;-141.29;100.00
22025;BME280;11176;51.448;6.650;2023-04-08T01:24:59;43006.97;;;-141.29;100.00
22025;BME280;11176;51.448;6.650;2023-04-08T01:27:29;43028.94;;;-141.29;100.00
22025;BME280;11176;51.448;6.650;2023-04-08T01:29:57;43006.97;;;-141.29;100.00
22025;BME280;11176;51.448;6.650;2023-04-08T01:32:25;43016.97;;;-141.29;100.00
22025;BME280;11176;51.448;6.650;2023-04-08T01:34:53;43020.97;;;-141.29;100.00
22025;BME280;11176;51.448;6.650;2023-04-08T01:37:22;43016.97;;;-141.29;100.00
22025;BME280;11176;51.448;6.650;2023-04-08T01:39:52;43028.94;;;-141.29;100.00
22025;BME280;11176;51.448;6.650;2023-04-08T01:42:23;43030.94;;;-141.29;100.00
22025;BME280;11176;51.448;6.650;2023-04-08T01:44:55;43018.97;;;-141.29;100.00
22025;BME280;11176;51.448;6.650;2023-04-08T01:47:23;43020.97;;;-141.29;100.00
22025;BME280;11176;51.448;6.650;2023-04-08T01:49:51;43010.97;;;-141.29;100.00
22025;BME280;11176;51.448;6.650;2023-04-08T01:52:19;43020.97;;;-141.29;100.00
22025;BME280;11176;51.448;6.650;2023-04-08T01:54:46;43024.97;;;-141.29;100.00
22025;BME280;11176;51.448;6.650;2023-04-08T01:57:16;43020.97;;;-141.29;100.00
22025;BME280;11176;51.448;6.650;2023-04-08T01:59:47;43005.00;;;-141.29;100.00
22025;BME280;11176;51.448;6.650;2023-04-08T02:02:19;43028.94;;;-141.29;100.00
22025;BME280;11176;51.448;6.650;2023-04-08T02:04:46;43012.97;;;-141.29;100.00
22025;BME280;11176;51.448;6.650;2023-04-08T02:07:13;43014.97;;;-141.29;100.00
22025;BME280;11176;51.448;6.650;2023-04-08T02:09:39;43020.97;;;-141.29;100.00
22025;BME280;11176;51.448;6.650;2023-04-08T02:12:07;43020.97;;;-141.29;100.00
22025;BME280;11176;51.448;6.650;2023-04-08T02:14:33;43022.97;;;-141.29;100.00
22025;BME280;11176;51.448;6.650;2023-04-08T02:17:13;43036.94;;;-141.29;100.00
22025;BME280;11176;51.448;6.650;2023-04-08T02:20:01;43024.97;;;-141.29;100.00
22025;BME280;11176;51.448;6.650;2023-04-08T02:25:14;43042.94;;;-141.29;100.00
22025;BME280;11176;51.448;6.650;2023-04-08T02:27:41;43026.97;;;-141.29;100.00
22025;BME280;11176;51.448;6.650;2023-04-08T02:30:10;43028.94;;;-141.29;100.00
22025;BME280;11176;51.448;6.650;2023-04-08T02:32:37;43010.97;;;-141.29;100.00
22025;BME280;11176;51.448;6.650;2023-04-08T02:35:04;43024.97;;;-141.29;100.00
22025;BME280;11176;51.448;6.650;2023-04-08T02:37:32;43012.97;;;-141.29;100.00
22025;BME280;11176;51.448;6.650;2023-04-08T02:39:59;43018.97;;;-141.29;100.00
22025;BME280;11176;51.448;6.650;2023-04-08T02:42:25;43026.97;;;-141.29;100.00
22025;BME280;11176;51.448;6.650;2023-04-08T02:44:52;43016.97;;;-141.29;100.00
22025;BME280;11176;51.448;6.650;2023-04-08T02:47:18;43024.97;;;-141.29;100.00
22025;BME280;11176;51.448;6.650;2023-04-08T02:49:45;43010.97;;;-141.29;100.00
22025;BME280;11176;51.448;6.650;2023-04-08T02:52:12;42993.00;;;-141.29;100.00
22025;BME280;11176;51.448;6.650;2023-04-08T02:54:38;43016.97;;;-141.29;100.00
22025;BME280;11176;51.448;6.650;2023-04-08T02:57:04;43001.00;;;-141.29;100.00
22025;BME280;11176;51.448;6.650;2023-04-08T02:59:31;42999.00;;;-141.29;100.00
22025;BME280;11176;51.448;6.650;2023-04-08T03:01:58;42983.03;;;-141.29;100.00
22025;BME280;11176;51.448;6.650;2023-04-08T03:04:26;43005.00;;;-141.29;100.00
22025;BME280;11176;51.448;6.650;2023-04-08T03:06:52;42989.00;;;-141.29;100.00
22025;BME280;11176;51.448;6.650;2023-04-08T03:09:19;43008.97;;;-141.29;100.00
22025;BME280;11176;51.448;6.650;2023-04-08T03:11:45;43020.97;;;-141.29;100.00
22025;BME280;11176;51.448;6.650;2023-04-08T03:14:17;43006.97;;;-141.29;100.00
22025;BME280;11176;51.448;6.650;2023-04-08T03:16:44;42973.03;;;-141.29;100.00
22025;BME280;11176;51.448;6.650;2023-04-08T03:19:10;43010.97;;;-141.29;100.00
22025;BME280;11176;51.448;6.650;2023-04-08T03:21:37;42989.00;;;-141.29;100.00
22025;BME280;11176;51.448;6.650;2023-04-08T03:24:03;43012.97;;;-141.29;100.00
22025;BME280;11176;51.448;6.650;2023-04-08T03:26:30;42977.03;;;-141.29;100.00
22025;BME280;11176;51.448;6.650;2023-04-08T03:28:56;42997.00;;;-141.29;100.00
22025;BME280;11176;51.448;6.650;2023-04-08T03:31:24;42985.03;;;-141.29;100.00
22025;BME280;11176;51.448;6.650;2023-04-08T03:33:51;42973.03;;;-141.29;100.00
22025;BME280;11176;51.448;6.650;2023-04-08T03:36:18;42993.00;;;-141.29;100.00
22025;BME280;11176;51.448;6.650;2023-04-08T03:38:44;42991.00;;;-141.29;100.00
22025;BME280;11176;51.448;6.650;2023-04-08T03:41:11;42989.00;;;-141.29;100.00
22025;BME280;11176;51.448;6.650;2023-04-08T03:43:37;42985.03;;;-141.29;100.00
22025;BME280;11176;51.448;6.650;2023-04-08T03:46:04;42991.00;;;-141.29;100.00
22025;BME280;11176;51.448;6.650;2023-04-08T03:48:31;42991.00;;;-141.29;100.00
22025;BME280;11176;51.448;6.650;2023-04-08T03:50:57;42969.03;;;-141.29;100.00
22025;BME280;11176;51.448;6.650;2023-04-08T03:53:24;42985.03;;;-141.29;100.00
22025;BME280;11176;51.448;6.650;2023-04-08T03:55:53;42981.03;;;-141.29;100.00
22025;BME280;11176;51.448;6.650;2023-04-08T03:58:20;42969.03;;;-141.29;100.00
22025;BME280;11176;51.448;6.650;2023-04-08T04:00:47;42953.06;;;-141.29;100.00
22025;BME280;11176;51.448;6.650;2023-04-08T04:03:13;42957.06;;;-141.29;100.00
22025;BME280;11176;51.448;6.650;2023-04-08T04:05:40;42953.06;;;-141.29;100.00
22025;BME280;11176;51.448;6.650;2023-04-08T04:08:07;42965.06;;;-141.29;100.00
22025;BME280;11176;51.448;6.650;2023-04-08T04:10:34;42965.06;;;-141.29;100.00
22025;BME280;11176;51.448;6.650;2023-04-08T04:13:01;42965.06;;;-141.29;100.00
22025;BME280;11176;51.448;6.650;2023-04-08T04:15:27;42981.03;;;-141.29;100.00
22025;BME280;11176;51.448;6.650;2023-04-08T04:17:54;42939.09;;;-141.29;100.00
22025;BME280;11176;51.448;6.650;2023-04-08T04:20:20;42953.06;;;-141.29;100.00
22025;BME280;11176;51.448;6.650;2023-04-08T04:22:47;42953.06;;;-141.29;100.00
22025;BME280;11176;51.448;6.650;2023-04-08T04:25:14;42957.06;;;-141.29;100.00
22025;BME280;11176;51.448;6.650;2023-04-08T04:27:40;42977.03;;;-141.29;100.00
22025;BME280;11176;51.448;6.650;2023-04-08T04:30:07;42981.03;;;-141.29;100.00
22025;BME280;11176;51.448;6.650;2023-04-08T04:32:34;42983.03;;;-141.29;100.00
22025;BME280;11176;51.448;6.650;2023-04-08T04:35:01;43016.97;;;-141.29;100.00
22025;BME280;11176;51.448;6.650;2023-04-08T04:37:27;42985.03;;;-141.29;100.00
22025;BME280;11176;51.448;6.650;2023-04-08T04:39:54;42995.00;;;-141.29;100.00
22025;BME280;11176;51.448;6.650;2023-04-08T04:42:20;42965.06;;;-141.29;100.00
22025;BME280;11176;51.448;6.650;2023-04-08T04:44:46;42977.03;;;-141.29;100.00
22025;BME280;11176;51.448;6.650;2023-04-08T04:47:13;42991.00;;;-141.29;100.00
22025;BME280;11176;51.448;6.650;2023-04-08T04:49:41;42957.06;;;-141.29;100.00
22025;BME280;11176;51.448;6.650;2023-04-08T04:52:08;42999.00;;;-141.29;100.00
22025;BME280;11176;51.448;6.650;2023-04-08T04:54:34;42997.00;;;-141.29;100.00
22025;BME280;11176;51.448;6.650;2023-04-08T04:57:00;42967.03;;;-141.29;100.00
22025;BME280;11176;51.448;6.650;2023-04-08T04:59:27;42981.03;;;-141.29;100.00
22025;BME280;11176;51.448;6.650;2023-04-08T05:01:54;42959.06;;;-141.29;100.00
22025;BME280;11176;51.448;6.650;2023-04-08T05:04:23;42987.00;;;-141.29;100.00
22025;BME280;11176;51.448;6.650;2023-04-08T05:06:50;42965.06;;;-141.29;100.00
22025;BME280;11176;51.448;6.650;2023-04-08T05:09:16;42971.03;;;-141.29;100.00
22025;BME280;11176;51.448;6.650;2023-04-08T05:11:43;42981.03;;;-141.29;100.00
22025;BME280;11176;51.448;6.650;2023-04-08T05:14:09;42961.06;;;-141.29;100.00
22025;BME280;11176;51.448;6.650;2023-04-08T05:16:36;42961.06;;;-141.29;100.00
22025;BME280;11176;51.448;6.650;2023-04-08T05:19:03;42961.06;;;-141.29;100.00
22025;BME280;11176;51.448;6.650;2023-04-08T05:21:30;42969.03;;;-141.29;100.00
22025;BME280;11176;51.448;6.650;2023-04-08T05:23:57;42989.00;;;-141.29;100.00
22025;BME280;11176;51.448;6.650;2023-04-08T05:26:24;42969.03;;;-141.29;100.00
22025;BME280;11176;51.448;6.650;2023-04-08T05:28:51;42973.03;;;-141.29;100.00
22025;BME280;11176;51.448;6.650;2023-04-08T05:31:19;42981.03;;;-141.29;100.00
22025;BME280;11176;51.448;6.650;2023-04-08T05:33:46;42973.03;;;-141.29;100.00
22025;BME280;11176;51.448;6.650;2023-04-08T05:36:13;42973.03;;;-141.29;100.00
22025;BME280;11176;51.448;6.650;2023-04-08T05:38:40;42977.03;;;-141.29;100.00
22025;BME280;11176;51.448;6.650;2023-04-08T05:41:08;42979.03;;;-141.29;100.00
22025;BME280;11176;51.448;6.650;2023-04-08T05:43:35;42985.03;;;-141.29;100.00
22025;BME280;11176;51.448;6.650;2023-04-08T05:46:06;42969.03;;;-141.29;100.00
22025;BME280;11176;51.448;6.650;2023-04-08T05:48:33;42973.03;;;-141.29;100.00
22025;BME280;11176;51.448;6.650;2023-04-08T05:50:59;42959.06;;;-141.29;100.00
22025;BME280;11176;51.448;6.650;2023-04-08T05:53:26;42981.03;;;-141.29;100.00
22025;BME280;11176;51.448;6.650;2023-04-08T05:55:52;42953.06;;;-141.29;100.00
22025;BME280;11176;51.448;6.650;2023-04-08T05:58:19;42969.03;;;-141.29;100.00
22025;BME280;11176;51.448;6.650;2023-04-08T06:00:45;42981.03;;;-141.29;100.00
22025;BME280;11176;51.448;6.650;2023-04-08T06:03:12;42973.03;;;-141.29;100.00
22025;BME280;11176;51.448;6.650;2023-04-08T06:05:39;42981.03;;;-141.29;100.00
22025;BME280;11176;51.448;6.650;2023-04-08T06:08:05;42977.03;;;-141.29;100.00
22025;BME280;11176;51.448;6.650;2023-04-08T06:10:32;42995.00;;;-141.29;100.00
22025;BME280;11176;51.448;6.650;2023-04-08T06:12:58;42951.06;;;-141.29;100.00
22025;BME280;11176;51.448;6.650;2023-04-08T06:15:25;42963.06;;;-141.29;100.00
22025;BME280;11176;51.448;6.650;2023-04-08T06:17:51;42969.03;;;-141.29;100.00
22025;BME280;11176;51.448;6.650;2023-04-08T06:20:18;42981.03;;;-141.29;100.00
22025;BME280;11176;51.448;6.650;2023-04-08T06:22:44;42949.06;;;-141.29;100.00
22025;BME280;11176;51.448;6.650;2023-04-08T06:25:11;42989.00;;;-141.29;100.00
22025;BME280;11176;51.448;6.650;2023-04-08T06:27:37;42969.03;;;-141.29;100.00
22025;BME280;11176;51.448;6.650;2023-04-08T06:30:05;42999.00;;;-141.29;100.00
22025;BME280;11176;51.448;6.650;2023-04-08T06:32:34;43001.00;;;-141.29;100.00
22025;BME280;11176;51.448;6.650;2023-04-08T06:35:01;42985.03;;;-141.29;100.00
22025;BME280;11176;51.448;6.650;2023-04-08T06:37:27;42989.00;;;-141.29;100.00
22025;BME280;11176;51.448;6.650;2023-04-08T06:39:54;42977.03;;;-141.29;100.00
22025;BME280;11176;51.448;6.650;2023-04-08T06:42:21;42993.00;;;-141.29;100.00
22025;BME280;11176;51.448;6.650;2023-04-08T06:45:06;42989.00;;;-141.29;100.00
22025;BME280;11176;51.448;6.650;2023-04-08T06:47:33;42999.00;;;-141.29;100.00
22025;BME280;11176;51.448;6.650;2023-04-08T06:49:59;43005.00;;;-141.29;100.00
22025;BME280;11176;51.448;6.650;2023-04-08T06:52:26;42965.06;;;-141.29;100.00
22025;BME280;11176;51.448;6.650;2023-04-08T06:54:53;42987.00;;;-141.29;100.00
22025;BME280;11176;51.448;6.650;2023-04-08T06:57:19;43018.97;;;-141.29;100.00
22025;BME280;11176;51.448;6.650;2023-04-08T06:59:46;42989.00;;;-141.29;100.00
22025;BME280;11176;51.448;6.650;2023-04-08T07:02:12;43005.00;;;-141.29;100.00
22025;BME280;11176;51.448;6.650;2023-04-08T07:04:39;42981.03;;;-141.29;100.00
22025;BME280;11176;51.448;6.650;2023-04-08T07:07:05;43003.00;;;-141.29;100.00
22025;BME280;11176;51.448;6.650;2023-04-08T07:09:32;42977.03;;;-141.29;100.00
22025;BME280;11176;51.448;6.650;2023-04-08T07:11:59;42999.00;;;-141.29;100.00
22025;BME280;11176;51.448;6.650;2023-04-08T07:14:26;42989.00;;;-141.29;100.00
22025;BME280;11176;51.448;6.650;2023-04-08T07:16:52;42991.00;;;-141.29;100.00
22025;BME280;11176;51.448;6.650;2023-04-08T07:19:19;42983.03;;;-141.29;100.00
22025;BME280;11176;51.448;6.650;2023-04-08T07:21:46;43022.97;;;-141.29;100.00
22025;BME280;11176;51.448;6.650;2023-04-08T07:24:13;42985.03;;;-141.29;100.00
22025;BME280;11176;51.448;6.650;2023-04-08T07:26:39;43008.97;;;-141.29;100.00
22025;BME280;11176;51.448;6.650;2023-04-08T07:29:05;42977.03;;;-141.29;100.00
22025;BME280;11176;51.448;6.650;2023-04-08T07:31:33;42989.00;;;-141.29;100.00
22025;BME280;11176;51.448;6.650;2023-04-08T07:33:59;43024.97;;;-141.29;100.00
22025;BME280;11176;51.448;6.650;2023-04-08T07:36:26;43008.97;;;-141.29;100.00
22025;BME280;11176;51.448;6.650;2023-04-08T07:38:53;43008.97;;;-141.29;100.00
22025;BME280;11176;51.448;6.650;2023-04-08T07:41:19;43008.97;;;-141.29;100.00
22025;BME280;11176;51.448;6.650;2023-04-08T07:43:46;43001.00;;;-141.29;100.00
22025;BME280;11176;51.448;6.650;2023-04-08T07:46:13;43008.97;;;-141.29;100.00
22025;BME280;11176;51.448;6.650;2023-04-08T07:48:39;43022.97;;;-141.29;100.00
22025;BME280;11176;51.448;6.650;2023-04-08T07:51:07;43016.97;;;-141.29;100.00
22025;BME280;11176;51.448;6.650;2023-04-08T07:53:38;43016.97;;;-141.29;100.00
22025;BME280;11176;51.448;6.650;2023-04-08T07:56:15;43008.97;;;-141.29;100.00
22025;BME280;11176;51.448;6.650;2023-04-08T07:58:43;43030.94;;;-141.29;100.00
22025;BME280;11176;51.448;6.650;2023-04-08T08:01:16;43005.00;;;-141.29;100.00
22025;BME280;11176;51.448;6.650;2023-04-08T08:03:44;43014.97;;;-141.29;100.00
22025;BME280;11176;51.448;6.650;2023-04-08T08:06:13;43012.97;;;-141.29;100.00
22025;BME280;11176;51.448;6.650;2023-04-08T08:08:39;43020.97;;;-141.29;100.00
22025;BME280;11176;51.448;6.650;2023-04-08T08:11:06;43028.94;;;-141.29;100.00
22025;BME280;11176;51.448;6.650;2023-04-08T08:13:33;43024.97;;;-141.29;100.00
22025;BME280;11176;51.448;6.650;2023-04-08T08:16:00;43048.91;;;-141.29;100.00
22025;BME280;11176;51.448;6.650;2023-04-08T08:18:26;43032.94;;;-141.29;100.00
22025;BME280;11176;51.448;6.650;2023-04-08T08:20:53;43038.94;;;-141.29;100.00
22025;BME280;11176;51.448;6.650;2023-04-08T08:23:19;43056.91;;;-141.29;100.00
22025;BME280;11176;51.448;6.650;2023-04-08T08:25:46;43030.94;;;-141.29;100.00
22025;BME280;11176;51.448;6.650;2023-04-08T08:28:12;43036.94;;;-141.29;100.00
22025;BME280;11176;51.448;6.650;2023-04-08T08:30:39;43034.94;;;-141.29;100.00
22025;BME280;11176;51.448;6.650;2023-04-08T08:33:05;43048.91;;;-141.29;100.00
22025;BME280;11176;51.448;6.650;2023-04-08T08:35:32;43036.94;;;-141.29;100.00
22025;BME280;11176;51.448;6.650;2023-04-08T08:37:58;43048.91;;;-141.29;100.00
22025;BME280;11176;51.448;6.650;2023-04-08T08:40:25;43072.88;;;-141.29;100.00
22025;BME280;11176;51.448;6.650;2023-04-08T08:42:51;43060.91;;;-141.29;100.00
22025;BME280;11176;51.448;6.650;2023-04-08T08:45:19;43056.91;;;-141.29;100.00
22025;BME280;11176;51.448;6.650;2023-04-08T08:47:46;43036.94;;;-141.29;100.00
22025;BME280;11176;51.448;6.650;2023-04-08T08:50:16;43058.91;;;-141.29;100.00
22025;BME280;11176;51.448;6.650;2023-04-08T08:52:49;43052.91;;;-141.29;100.00
22025;BME280;11176;51.448;6.650;2023-04-08T08:55:18;43066.91;;;-141.29;100.00
22025;BME280;11176;51.448;6.650;2023-04-08T08:58:05;43052.91;;;-141.29;100.00
22025;BME280;11176;51.448;6.650;2023-04-08T09:00:37;43052.91;;;-141.29;100.00
22025;BME280;11176;51.448;6.650;2023-04-08T09:05:56;43064.91;;;-141.29;100.00
22025;BME280;11176;51.448;6.650;2023-04-08T09:08:33;43072.88;;;-141.29;100.00
22025;BME280;11176;51.448;6.650;2023-04-08T09:11:11;43064.91;;;-141.29;100.00
22025;BME280;11176;51.448;6.650;2023-04-08T09:13:37;43010.97;;;-141.29;100.00
22025;BME280;11176;51.448;6.650;2023-04-08T09:16:05;43064.91;;;-141.29;100.00
22025;BME280;11176;51.448;6.650;2023-04-08T09:18:32;43050.91;;;-141.29;100.00
22025;BME280;11176;51.448;6.650;2023-04-08T09:21:00;43030.94;;;-141.29;100.00
22025;BME280;11176;51.448;6.650;2023-04-08T09:28:40;43040.94;;;-141.29;100.00
22025;BME280;11176;51.448;6.650;2023-04-08T09:31:28;43044.94;;;-141.29;100.00
22025;BME280;11176;51.448;6.650;2023-04-08T09:33:56;43054.91;;;-141.29;100.00
22025;BME280;11176;51.448;6.650;2023-04-08T09:36:23;43056.91;;;-141.29;100.00
22025;BME280;11176;51.448;6.650;2023-04-08T09:38:53;43048.91;;;-141.29;100.00
22025;BME280;11176;51.448;6.650;2023-04-08T09:41:20;43044.94;;;-141.29;100.00
22025;BME280;11176;51.448;6.650;2023-04-08T09:43:50;43064.91;;;-141.29;100.00
22025;BME280;11176;51.448;6.650;2023-04-08T09:52:29;43040.94;;;-141.29;100.00
22025;BME280;11176;51.448;6.650;2023-04-08T09:55:05;43028.94;;;-141.29;100.00
22025;BME280;11176;51.448;6.650;2023-04-08T09:57:43;43020.97;;;-141.29;100.00
22025;BME280;11176;51.448;6.650;2023-04-08T10:00:12;43024.97;;;-141.29;100.00
22025;BME280;11176;51.448;6.650;2023-04-08T10:03:09;43008.97;;;-141.29;100.00
22025;BME280;11176;51.448;6.650;2023-04-08T10:05:37;43018.97;;;-141.29;100.00
22025;BME280;11176;51.448;6.650;2023-04-08T10:08:06;43001.00;;;-141.29;100.00
22025;BME280;11176;51.448;6.650;2023-04-08T10:10:38;42999.00;;;-141.29;100.00
22025;BME280;11176;51.448;6.650;2023-04-08T10:13:06;42991.00;;;-141.29;100.00
22025;BME280;11176;51.448;6.650;2023-04-08T10:15:33;42989.00;;;-141.29;100.00
22025;BME280;11176;51.448;6.650;2023-04-08T10:23:14;42961.06;;;-141.29;100.00
22025;BME280;11176;51.448;6.650;2023-04-08T10:25:42;42955.06;;;-141.29;100.00
22025;BME280;11176;51.448;6.650;2023-04-08T10:33:09;42953.06;;;-141.29;100.00
22025;BME280;11176;51.448;6.650;2023-04-08T10:35:41;42981.03;;;-141.29;100.00
22025;BME280;11176;51.448;6.650;2023-04-08T10:38:08;42981.03;;;-141.29;100.00
22025;BME280;11176;51.448;6.650;2023-04-08T10:40:35;42945.06;;;-141.29;100.00
22025;BME280;11176;51.448;6.650;2023-04-08T10:43:11;42939.09;;;-141.29;99.79
22025;BME280;11176;51.448;6.650;2023-04-08T10:45:39;42935.09;;;-141.29;98.36
22025;BME280;11176;51.448;6.650;2023-04-08T10:50:39;42893.16;;;-141.29;94.93
22025;BME280;11176;51.448;6.650;2023-04-08T10:53:06;42879.19;;;-141.29;92.74
22025;BME280;11176;51.448;6.650;2023-04-08T10:55:33;42881.19;;;-141.29;90.82
22025;BME280;11176;51.448;6.650;2023-04-08T10:58:07;42825.25;;;-141.29;87.84
22025;BME280;11176;51.448;6.650;2023-04-08T11:00:40;42825.25;;;-141.29;86.74
22025;BME280;11176;51.448;6.650;2023-04-08T11:03:08;42777.34;;;-141.29;86.08
22025;BME280;11176;51.448;6.650;2023-04-08T11:05:36;42765.34;;;-141.29;86.84
22025;BME280;11176;51.448;6.650;2023-04-08T11:08:04;42769.34;;;-141.29;86.92
22025;BME280;11176;51.448;6.650;2023-04-08T11:10:36;42781.34;;;-141.29;86.93
22025;BME280;11176;51.448;6.650;2023-04-08T11:13:06;42733.41;;;-141.29;85.65
22025;BME280;11176;51.448;6.650;2023-04-08T11:15:34;42747.38;;;-141.29;85.20
22025;BME280;11176;51.448;6.650;2023-04-08T11:18:04;42729.41;;;-141.29;84.51
22025;BME280;11176;51.448;6.650;2023-04-08T11:20:32;42699.47;;;-141.29;83.53
22025;BME280;11176;51.448;6.650;2023-04-08T11:23:02;42679.50;;;-141.29;82.44
22025;BME280;11176;51.448;6.650;2023-04-08T11:25:29;42673.50;;;-141.29;82.79
22025;BME280;11176;51.448;6.650;2023-04-08T11:27:55;42645.56;;;-141.29;82.19
22025;BME280;11176;51.448;6.650;2023-04-08T11:30:22;42641.56;;;-141.29;82.95
22025;BME280;11176;51.448;6.650;2023-04-08T11:32:49;42601.63;;;-141.29;82.55
22025;BME280;11176;51.448;6.650;2023-04-08T11:35:17;42649.53;;;-141.29;83.67
22025;BME280;11176;51.448;6.650;2023-04-08T11:37:43;42641.56;;;-141.29;85.04
22025;BME280;11176;51.448;6.650;2023-04-08T11:40:12;42649.53;;;-141.29;85.29
22025;BME280;11176;51.448;6.650;2023-04-08T11:42:44;42633.56;;;-141.29;84.96
22025;BME280;11176;51.448;6.650;2023-04-08T11:45:14;42597.63;;;-141.29;83.60
22025;BME280;11176;51.448;6.650;2023-04-08T11:47:42;42615.59;;;-141.29;84.46
22025;BME280;11176;51.448;6.650;2023-04-08T11:50:09;42609.59;;;-141.29;85.11
22025;BME280;11176;51.448;6.650;2023-04-08T11:55:22;42609.59;;;-141.29;84.85
22025;BME280;11176;51.448;6.650;2023-04-08T11:57:49;42597.63;;;-141.29;85.61
22025;BME280;11176;51.448;6.650;2023-04-08T12:00:18;42617.59;;;-141.29;85.39
22025;BME280;11176;51.448;6.650;2023-04-08T12:02:45;42605.63;;;-141.29;84.44
22025;BME280;11176;51.448;6.650;2023-04-08T12:05:16;42577.66;;;-141.29;83.42
22025;BME280;11176;51.448;6.650;2023-04-08T12:07:43;42605.63;;;-141.29;84.53
22025;BME280;11176;51.448;6.650;2023-04-08T12:10:10;42597.63;;;-141.29;85.25
22025;BME280;11176;51.448;6.650;2023-04-08T12:12:39;42591.63;;;-141.29;85.04
22025;BME280;11176;51.448;6.650;2023-04-08T12:15:06;42601.63;;;-141.29;84.63
22025;BME280;11176;51.448;6.650;2023-04-08T12:17:34;42561.69;;;-141.29;84.11
22025;BME280;11176;51.448;6.650;2023-04-08T12:20:00;42569.66;;;-141.29;84.03
22025;BME280;11176;51.448;6.650;2023-04-08T12:22:27;42597.63;;;-141.29;83.91
22025;BME280;11176;51.448;6.650;2023-04-08T12:24:53;42597.63;;;-141.29;84.44
22025;BME280;11176;51.448;6.650;2023-04-08T12:27:22;42589.63;;;-141.29;84.03
22025;BME280;11176;51.448;6.650;2023-04-08T12:29:49;42577.66;;;-141.29;83.67
22025;BME280;11176;51.448;6.650;2023-04-08T12:32:15;42589.63;;;-141.29;82.37
22025;BME280;11176;51.448;6.650;2023-04-08T12:34:42;42571.66;;;-141.29;81.18
22025;BME280;11176;51.448;6.650;2023-04-08T12:37:08;42563.69;;;-141.29;80.52
22025;BME280;11176;51.448;6.650;2023-04-08T12:39:36;42565.69;;;-141.29;79.88
22025;BME280;11176;51.448;6.650;2023-04-08T12:42:03;42569.66;;;-141.29;80.59
22025;BME280;11176;51.448;6.650;2023-04-08T12:44:30;42561.69;;;-141.29;79.98
22025;BME280;11176;51.448;6.650;2023-04-08T12:46:56;42553.69;;;-141.29;79.64
22025;BME280;11176;51.448;6.650;2023-04-08T12:49:26;42549.72;;;-141.29;79.51
22025;BME280;11176;51.448;6.650;2023-04-08T12:51:53;42573.66;;;-141.29;78.96
22025;BME280;11176;51.448;6.650;2023-04-08T12:54:20;42567.69;;;-141.29;78.77
22025;BME280;11176;51.448;6.650;2023-04-08T12:56:46;42571.66;;;-141.29;79.20
22025;BME280;11176;51.448;6.650;2023-04-08T12:59:14;42593.63;;;-141.29;78.79
22025;BME280;11176;51.448;6.650;2023-04-08T13:01:40;42549.72;;;-141.29;78.21
22025;BME280;11176;51.448;6.650;2023-04-08T13:04:07;42565.69;;;-141.29;77.79
22025;BME280;11176;51.448;6.650;2023-04-08T13:06:34;42583.66;;;-141.29;77.67
22025;BME280;11176;51.448;6.650;2023-04-08T13:09:00;42561.69;;;-141.29;77.62